sensor_id;sensor_type;location;lat;lon;timestamp;P1;durP1;ratioP1;P2;durP2;ratioP2
5702;SDS011;2876;51.738;10.050;2023-04-19T00:01:18;3.33;;;2.60;;
5702;SDS011;2876;51.738;10.050;2023-04-19T00:07:20;3.63;;;3.23;;
5702;SDS011;2876;51.738;10.050;2023-04-19T00:13:22;5.07;;;3.43;;
5702;SDS011;2876;51.738;10.050;2023-04-19T00:19:24;4.23;;;3.60;;
5702;SDS011;2876;51.738;10.050;2023-04-19T00:25:26;6.27;;;3.70;;
5702;SDS011;2876;51.738;10.050;2023-04-19T00:31:30;5.60;;;3.63;;
5702;SDS011;2876;51.738;10.050;2023-04-19T00:37:32;4.77;;;4.27;;
5702;SDS011;2876;51.738;10.050;2023-04-19T00:43:34;4.70;;;3.50;;
5702;SDS011;2876;51.738;10.050;2023-04-19T00:49:36;6.97;;;4.53;;
5702;SDS011;2876;51.738;10.050;2023-04-19T00:55:38;8.83;;;4.47;;
5702;SDS011;2876;51.738;10.050;2023-04-19T01:01:40;5.77;;;4.00;;
5702;SDS011;2876;51.738;10.050;2023-04-19T01:07:42;9.03;;;3.70;;
5702;SDS011;2876;51.738;10.050;2023-04-19T01:13:44;5.37;;;4.03;;
5702;SDS011;2876;51.738;10.050;2023-04-19T01:19:46;5.30;;;4.80;;
5702;SDS011;2876;51.738;10.050;2023-04-19T01:25:48;7.53;;;4.90;;
5702;SDS011;2876;51.738;10.050;2023-04-19T01:31:50;5.27;;;4.33;;
5702;SDS011;2876;51.738;10.050;2023-04-19T01:37:54;5.33;;;4.60;;
5702;SDS011;2876;51.738;10.050;2023-04-19T01:43:56;6.53;;;5.00;;
5702;SDS011;2876;51.738;10.050;2023-04-19T01:49:58;8.57;;;5.40;;
5702;SDS011;2876;51.738;10.050;2023-04-19T01:56:00;6.07;;;4.90;;
5702;SDS011;2876;51.738;10.050;2023-04-19T02:02:05;7.60;;;5.27;;
5702;SDS011;2876;51.738;10.050;2023-04-19T02:08:08;5.47;;;4.67;;
5702;SDS011;2876;51.738;10.050;2023-04-19T02:14:10;6.73;;;4.63;;
5702;SDS011;2876;51.738;10.050;2023-04-19T02:20:12;7.57;;;4.60;;
5702;SDS011;2876;51.738;10.050;2023-04-19T02:26:14;9.00;;;4.20;;
5702;SDS011;2876;51.738;10.050;2023-04-19T02:32:16;8.90;;;4.00;;
5702;SDS011;2876;51.738;10.050;2023-04-19T02:38:18;7.33;;;4.40;;
5702;SDS011;2876;51.738;10.050;2023-04-19T02:44:20;4.90;;;3.47;;
5702;SDS011;2876;51.738;10.050;2023-04-19T02:50:22;6.80;;;3.50;;
5702;SDS011;2876;51.738;10.050;2023-04-19T02:56:24;4.70;;;3.80;;
5702;SDS011;2876;51.738;10.050;2023-04-19T03:02:26;7.50;;;3.70;;
5702;SDS011;2876;51.738;10.050;2023-04-19T03:08:28;3.90;;;3.50;;
5702;SDS011;2876;51.738;10.050;2023-04-19T03:14:30;5.10;;;3.37;;
5702;SDS011;2876;51.738;10.050;2023-04-19T03:20:33;3.97;;;3.33;;
5702;SDS011;2876;51.738;10.050;2023-04-19T03:26:35;4.60;;;3.37;;
5702;SDS011;2876;51.738;10.050;2023-04-19T03:32:37;6.47;;;3.53;;
5702;SDS011;2876;51.738;10.050;2023-04-19T03:38:39;7.07;;;3.90;;
5702;SDS011;2876;51.738;10.050;2023-04-19T03:44:41;4.60;;;3.20;;
5702;SDS011;2876;51.738;10.050;2023-04-19T03:50:43;5.40;;;3.20;;
5702;SDS011;2876;51.738;10.050;2023-04-19T03:56:46;4.77;;;3.77;;
5702;SDS011;2876;51.738;10.050;2023-04-19T04:02:48;5.43;;;3.07;;
5702;SDS011;2876;51.738;10.050;2023-04-19T04:08:50;4.33;;;3.00;;
5702;SDS011;2876;51.738;10.050;2023-04-19T04:14:52;6.60;;;3.07;;
5702;SDS011;2876;51.738;10.050;2023-04-19T04:20:54;4.50;;;3.20;;
5702;SDS011;2876;51.738;10.050;2023-04-19T04:26:56;4.10;;;2.80;;
5702;SDS011;2876;51.738;10.050;2023-04-19T04:33:00;4.40;;;4.00;;
5702;SDS011;2876;51.738;10.050;2023-04-19T04:39:03;5.17;;;3.50;;
5702;SDS011;2876;51.738;10.050;2023-04-19T04:45:06;5.83;;;3.93;;
5702;SDS011;2876;51.738;10.050;2023-04-19T04:51:10;6.33;;;3.20;;
5702;SDS011;2876;51.738;10.050;2023-04-19T04:57:12;6.83;;;3.27;;
5702;SDS011;2876;51.738;10.050;2023-04-19T05:03:14;9.93;;;3.40;;
5702;SDS011;2876;51.738;10.050;2023-04-19T05:09:16;4.57;;;2.83;;
5702;SDS011;2876;51.738;10.050;2023-04-19T05:15:18;4.43;;;3.07;;
5702;SDS011;2876;51.738;10.050;2023-04-19T05:21:21;5.13;;;3.20;;
5702;SDS011;2876;51.738;10.050;2023-04-19T05:27:23;3.43;;;2.80;;
5702;SDS011;2876;51.738;10.050;2023-04-19T05:33:25;6.50;;;3.00;;
5702;SDS011;2876;51.738;10.050;2023-04-19T05:39:27;3.13;;;2.50;;
5702;SDS011;2876;51.738;10.050;2023-04-19T05:45:29;4.10;;;2.30;;
5702;SDS011;2876;51.738;10.050;2023-04-19T05:51:31;4.37;;;2.93;;
5702;SDS011;2876;51.738;10.050;2023-04-19T05:57:33;4.03;;;3.30;;
5702;SDS011;2876;51.738;10.050;2023-04-19T06:03:35;3.63;;;2.67;;
5702;SDS011;2876;51.738;10.050;2023-04-19T06:09:37;3.80;;;2.77;;
5702;SDS011;2876;51.738;10.050;2023-04-19T06:15:39;2.73;;;2.47;;
5702;SDS011;2876;51.738;10.050;2023-04-19T06:21:42;10.20;;;3.20;;
5702;SDS011;2876;51.738;10.050;2023-04-19T06:27:44;6.77;;;3.00;;
5702;SDS011;2876;51.738;10.050;2023-04-19T06:33:46;3.50;;;2.70;;
5702;SDS011;2876;51.738;10.050;2023-04-19T06:39:48;4.80;;;3.40;;
5702;SDS011;2876;51.738;10.050;2023-04-19T06:45:59;3.90;;;2.97;;
5702;SDS011;2876;51.738;10.050;2023-04-19T06:52:02;12.17;;;3.23;;
5702;SDS011;2876;51.738;10.050;2023-04-19T06:58:04;4.80;;;2.70;;
5702;SDS011;2876;51.738;10.050;2023-04-19T07:04:11;5.63;;;2.70;;
5702;SDS011;2876;51.738;10.050;2023-04-19T07:10:14;5.23;;;3.00;;
5702;SDS011;2876;51.738;10.050;2023-04-19T07:16:16;2.43;;;2.03;;
5702;SDS011;2876;51.738;10.050;2023-04-19T07:22:18;5.30;;;2.03;;
5702;SDS011;2876;51.738;10.050;2023-04-19T07:28:20;2.97;;;2.27;;
5702;SDS011;2876;51.738;10.050;2023-04-19T07:34:22;4.10;;;3.03;;
5702;SDS011;2876;51.738;10.050;2023-04-19T07:40:24;2.50;;;2.13;;
5702;SDS011;2876;51.738;10.050;2023-04-19T07:46:26;3.30;;;2.10;;
5702;SDS011;2876;51.738;10.050;2023-04-19T07:52:28;3.73;;;2.67;;
5702;SDS011;2876;51.738;10.050;2023-04-19T07:58:30;4.83;;;1.93;;
5702;SDS011;2876;51.738;10.050;2023-04-19T08:04:32;4.50;;;2.33;;
5702;SDS011;2876;51.738;10.050;2023-04-19T08:10:34;4.30;;;2.20;;
5702;SDS011;2876;51.738;10.050;2023-04-19T08:16:36;3.60;;;1.70;;
5702;SDS011;2876;51.738;10.050;2023-04-19T08:22:41;2.13;;;1.93;;
5702;SDS011;2876;51.738;10.050;2023-04-19T08:28:43;2.97;;;2.33;;
5702;SDS011;2876;51.738;10.050;2023-04-19T08:34:45;3.70;;;1.90;;
5702;SDS011;2876;51.738;10.050;2023-04-19T08:40:50;3.77;;;2.00;;
5702;SDS011;2876;51.738;10.050;2023-04-19T08:46:56;4.90;;;3.20;;
5702;SDS011;2876;51.738;10.050;2023-04-19T08:53:00;2.57;;;2.17;;
5702;SDS011;2876;51.738;10.050;2023-04-19T08:59:05;3.93;;;2.20;;
5702;SDS011;2876;51.738;10.050;2023-04-19T09:05:19;3.20;;;2.20;;
5702;SDS011;2876;51.738;10.050;2023-04-19T09:11:22;4.13;;;2.37;;
5702;SDS011;2876;51.738;10.050;2023-04-19T09:17:40;4.70;;;2.53;;
5702;SDS011;2876;51.738;10.050;2023-04-19T09:23:45;3.30;;;2.33;;
5702;SDS011;2876;51.738;10.050;2023-04-19T09:29:51;2.50;;;1.97;;
5702;SDS011;2876;51.738;10.050;2023-04-19T09:35:55;4.00;;;2.50;;
5702;SDS011;2876;51.738;10.050;2023-04-19T09:41:59;5.60;;;2.90;;
5702;SDS011;2876;51.738;10.050;2023-04-19T09:48:03;3.43;;;3.00;;
5702;SDS011;2876;51.738;10.050;2023-04-19T09:54:10;5.87;;;2.77;;
5702;SDS011;2876;51.738;10.050;2023-04-19T10:00:14;7.87;;;2.97;;
5702;SDS011;2876;51.738;10.050;2023-04-19T10:06:17;3.47;;;2.90;;
5702;SDS011;2876;51.738;10.050;2023-04-19T10:12:23;3.23;;;2.80;;
5702;SDS011;2876;51.738;10.050;2023-04-19T10:18:30;4.17;;;2.53;;
5702;SDS011;2876;51.738;10.050;2023-04-19T10:24:32;6.10;;;2.80;;
5702;SDS011;2876;51.738;10.050;2023-04-19T10:30:34;4.50;;;2.53;;
5702;SDS011;2876;51.738;10.050;2023-04-19T10:36:36;2.77;;;2.57;;
5702;SDS011;2876;51.738;10.050;2023-04-19T10:49:11;8.03;;;2.77;;
5702;SDS011;2876;51.738;10.050;2023-04-19T10:55:14;4.17;;;2.33;;
5702;SDS011;2876;51.738;10.050;2023-04-19T11:01:34;8.43;;;2.50;;
5702;SDS011;2876;51.738;10.050;2023-04-19T11:07:44;2.30;;;1.97;;
5702;SDS011;2876;51.738;10.050;2023-04-19T11:13:46;7.40;;;2.30;;
5702;SDS011;2876;51.738;10.050;2023-04-19T11:19:56;2.33;;;2.13;;
5702;SDS011;2876;51.738;10.050;2023-04-19T11:26:03;5.00;;;2.17;;
5702;SDS011;2876;51.738;10.050;2023-04-19T11:32:06;2.00;;;1.90;;
5702;SDS011;2876;51.738;10.050;2023-04-19T11:38:08;4.50;;;2.53;;
5702;SDS011;2876;51.738;10.050;2023-04-19T11:44:17;5.37;;;2.83;;
5702;SDS011;2876;51.738;10.050;2023-04-19T11:50:29;3.73;;;2.57;;
5702;SDS011;2876;51.738;10.050;2023-04-19T11:56:32;2.60;;;2.40;;
5702;SDS011;2876;51.738;10.050;2023-04-19T12:02:42;3.10;;;2.77;;
5702;SDS011;2876;51.738;10.050;2023-04-19T12:08:46;4.10;;;2.20;;
5702;SDS011;2876;51.738;10.050;2023-04-19T12:14:51;3.93;;;2.50;;
5702;SDS011;2876;51.738;10.050;2023-04-19T12:20:53;4.40;;;2.50;;
5702;SDS011;2876;51.738;10.050;2023-04-19T12:26:55;3.37;;;2.23;;
5702;SDS011;2876;51.738;10.050;2023-04-19T12:32:59;9.43;;;2.10;;
5702;SDS011;2876;51.738;10.050;2023-04-19T12:39:01;2.63;;;1.80;;
5702;SDS011;2876;51.738;10.050;2023-04-19T12:45:04;8.00;;;2.90;;
5702;SDS011;2876;51.738;10.050;2023-04-19T12:51:06;2.70;;;2.33;;
5702;SDS011;2876;51.738;10.050;2023-04-19T12:57:09;22.57;;;5.33;;
5702;SDS011;2876;51.738;10.050;2023-04-19T13:03:11;3.60;;;2.43;;
5702;SDS011;2876;51.738;10.050;2023-04-19T13:09:14;6.07;;;2.33;;
5702;SDS011;2876;51.738;10.050;2023-04-19T13:15:16;2.03;;;1.83;;
5702;SDS011;2876;51.738;10.050;2023-04-19T13:21:18;2.33;;;2.13;;
5702;SDS011;2876;51.738;10.050;2023-04-19T13:27:20;4.10;;;2.30;;
5702;SDS011;2876;51.738;10.050;2023-04-19T13:33:22;3.37;;;2.40;;
5702;SDS011;2876;51.738;10.050;2023-04-19T13:39:24;3.30;;;2.10;;
5702;SDS011;2876;51.738;10.050;2023-04-19T13:45:26;2.40;;;2.20;;
5702;SDS011;2876;51.738;10.050;2023-04-19T13:51:28;3.33;;;2.20;;
5702;SDS011;2876;51.738;10.050;2023-04-19T13:57:49;6.00;;;2.40;;
5702;SDS011;2876;51.738;10.050;2023-04-19T14:03:51;3.23;;;2.20;;
5702;SDS011;2876;51.738;10.050;2023-04-19T14:09:53;2.30;;;2.10;;
5702;SDS011;2876;51.738;10.050;2023-04-19T14:15:55;2.50;;;2.30;;
5702;SDS011;2876;51.738;10.050;2023-04-19T14:21:57;4.67;;;1.70;;
5702;SDS011;2876;51.738;10.050;2023-04-19T14:28:00;2.47;;;2.10;;
5702;SDS011;2876;51.738;10.050;2023-04-19T14:34:02;3.20;;;2.40;;
5702;SDS011;2876;51.738;10.050;2023-04-19T14:40:04;4.60;;;2.47;;
5702;SDS011;2876;51.738;10.050;2023-04-19T14:46:07;2.73;;;2.53;;
5702;SDS011;2876;51.738;10.050;2023-04-19T14:52:09;3.40;;;2.33;;
5702;SDS011;2876;51.738;10.050;2023-04-19T14:58:11;3.83;;;3.07;;
5702;SDS011;2876;51.738;10.050;2023-04-19T15:04:13;5.83;;;2.70;;
5702;SDS011;2876;51.738;10.050;2023-04-19T15:10:15;3.20;;;2.50;;
5702;SDS011;2876;51.738;10.050;2023-04-19T15:16:17;4.40;;;2.50;;
5702;SDS011;2876;51.738;10.050;2023-04-19T15:22:19;4.93;;;2.30;;
5702;SDS011;2876;51.738;10.050;2023-04-19T15:28:22;4.10;;;2.20;;
5702;SDS011;2876;51.738;10.050;2023-04-19T15:34:24;2.90;;;2.57;;
5702;SDS011;2876;51.738;10.050;2023-04-19T15:40:26;4.47;;;2.90;;
5702;SDS011;2876;51.738;10.050;2023-04-19T15:46:30;5.63;;;2.63;;
5702;SDS011;2876;51.738;10.050;2023-04-19T15:52:32;5.37;;;2.50;;
5702;SDS011;2876;51.738;10.050;2023-04-19T15:58:34;4.17;;;2.80;;
5702;SDS011;2876;51.738;10.050;2023-04-19T16:04:37;4.07;;;2.70;;
5702;SDS011;2876;51.738;10.050;2023-04-19T16:10:39;3.17;;;2.60;;
5702;SDS011;2876;51.738;10.050;2023-04-19T16:16:41;4.10;;;2.40;;
5702;SDS011;2876;51.738;10.050;2023-04-19T16:22:43;5.20;;;3.03;;
5702;SDS011;2876;51.738;10.050;2023-04-19T16:28:45;7.83;;;3.00;;
5702;SDS011;2876;51.738;10.050;2023-04-19T16:34:47;5.07;;;2.43;;
5702;SDS011;2876;51.738;10.050;2023-04-19T16:40:49;10.33;;;3.00;;
5702;SDS011;2876;51.738;10.050;2023-04-19T16:46:51;3.10;;;2.70;;
5702;SDS011;2876;51.738;10.050;2023-04-19T16:52:53;5.30;;;2.73;;
5702;SDS011;2876;51.738;10.050;2023-04-19T16:58:55;5.27;;;3.40;;
5702;SDS011;2876;51.738;10.050;2023-04-19T17:04:57;4.03;;;2.50;;
5702;SDS011;2876;51.738;10.050;2023-04-19T17:10:59;6.63;;;2.90;;
5702;SDS011;2876;51.738;10.050;2023-04-19T17:17:01;6.33;;;3.07;;
5702;SDS011;2876;51.738;10.050;2023-04-19T17:23:03;4.13;;;2.70;;
5702;SDS011;2876;51.738;10.050;2023-04-19T17:29:05;11.43;;;2.80;;
5702;SDS011;2876;51.738;10.050;2023-04-19T17:35:07;10.20;;;3.07;;
5702;SDS011;2876;51.738;10.050;2023-04-19T17:41:09;9.23;;;3.37;;
5702;SDS011;2876;51.738;10.050;2023-04-19T17:47:17;6.13;;;3.50;;
5702;SDS011;2876;51.738;10.050;2023-04-19T17:53:20;9.27;;;3.23;;
5702;SDS011;2876;51.738;10.050;2023-04-19T17:59:22;6.73;;;3.97;;
5702;SDS011;2876;51.738;10.050;2023-04-19T18:05:24;6.97;;;3.67;;
5702;SDS011;2876;51.738;10.050;2023-04-19T18:11:26;4.37;;;3.00;;
5702;SDS011;2876;51.738;10.050;2023-04-19T18:17:29;4.60;;;3.27;;
5702;SDS011;2876;51.738;10.050;2023-04-19T18:23:31;5.70;;;3.73;;
5702;SDS011;2876;51.738;10.050;2023-04-19T18:29:33;3.50;;;3.20;;
5702;SDS011;2876;51.738;10.050;2023-04-19T18:35:34;9.37;;;4.00;;
5702;SDS011;2876;51.738;10.050;2023-04-19T18:41:36;6.80;;;3.93;;
5702;SDS011;2876;51.738;10.050;2023-04-19T18:47:38;14.33;;;3.70;;
5702;SDS011;2876;51.738;10.050;2023-04-19T18:53:41;4.57;;;3.17;;
5702;SDS011;2876;51.738;10.050;2023-04-19T18:59:45;11.40;;;3.23;;
5702;SDS011;2876;51.738;10.050;2023-04-19T19:05:47;6.00;;;3.10;;
5702;SDS011;2876;51.738;10.050;2023-04-19T19:11:51;9.60;;;3.37;;
5702;SDS011;2876;51.738;10.050;2023-04-19T19:17:57;6.03;;;2.73;;
5702;SDS011;2876;51.738;10.050;2023-04-19T19:23:59;7.10;;;3.13;;
5702;SDS011;2876;51.738;10.050;2023-04-19T19:30:01;11.10;;;3.33;;
5702;SDS011;2876;51.738;10.050;2023-04-19T19:36:03;7.17;;;2.90;;
5702;SDS011;2876;51.738;10.050;2023-04-19T19:42:05;5.03;;;2.90;;
5702;SDS011;2876;51.738;10.050;2023-04-19T19:48:08;3.60;;;3.20;;
5702;SDS011;2876;51.738;10.050;2023-04-19T19:54:10;10.17;;;3.70;;
5702;SDS011;2876;51.738;10.050;2023-04-19T20:00:12;5.73;;;3.00;;
5702;SDS011;2876;51.738;10.050;2023-04-19T20:06:36;7.60;;;3.60;;
5702;SDS011;2876;51.738;10.050;2023-04-19T20:12:58;3.93;;;2.93;;
5702;SDS011;2876;51.738;10.050;2023-04-19T20:19:01;5.90;;;3.60;;
5702;SDS011;2876;51.738;10.050;2023-04-19T20:25:09;4.43;;;3.90;;
5702;SDS011;2876;51.738;10.050;2023-04-19T20:31:13;5.13;;;3.80;;
5702;SDS011;2876;51.738;10.050;2023-04-19T20:37:15;10.40;;;5.17;;
5702;SDS011;2876;51.738;10.050;2023-04-19T20:43:17;6.70;;;4.50;;
5702;SDS011;2876;51.738;10.050;2023-04-19T20:49:19;8.83;;;4.93;;
5702;SDS011;2876;51.738;10.050;2023-04-19T20:55:21;5.90;;;4.57;;
5702;SDS011;2876;51.738;10.050;2023-04-19T21:01:24;8.57;;;6.00;;
5702;SDS011;2876;51.738;10.050;2023-04-19T21:07:25;9.60;;;6.00;;
5702;SDS011;2876;51.738;10.050;2023-04-19T21:13:27;8.53;;;4.50;;
5702;SDS011;2876;51.738;10.050;2023-04-19T21:19:31;10.50;;;5.83;;
5702;SDS011;2876;51.738;10.050;2023-04-19T21:25:33;7.63;;;5.37;;
5702;SDS011;2876;51.738;10.050;2023-04-19T21:31:35;7.20;;;4.97;;
5702;SDS011;2876;51.738;10.050;2023-04-19T21:37:37;7.30;;;4.77;;
5702;SDS011;2876;51.738;10.050;2023-04-19T21:43:39;9.50;;;6.03;;
5702;SDS011;2876;51.738;10.050;2023-04-19T21:49:41;9.93;;;6.00;;
5702;SDS011;2876;51.738;10.050;2023-04-19T21:55:43;7.93;;;4.87;;
5702;SDS011;2876;51.738;10.050;2023-04-19T22:01:47;8.83;;;5.50;;
5702;SDS011;2876;51.738;10.050;2023-04-19T22:07:49;8.80;;;5.03;;
5702;SDS011;2876;51.738;10.050;2023-04-19T22:13:51;11.10;;;5.93;;
5702;SDS011;2876;51.738;10.050;2023-04-19T22:19:53;7.60;;;5.60;;
5702;SDS011;2876;51.738;10.050;2023-04-19T22:25:55;12.90;;;5.60;;
5702;SDS011;2876;51.738;10.050;2023-04-19T22:31:57;8.43;;;5.50;;
5702;SDS011;2876;51.738;10.050;2023-04-19T22:37:59;8.73;;;5.70;;
5702;SDS011;2876;51.738;10.050;2023-04-19T22:44:01;7.17;;;5.20;;
5702;SDS011;2876;51.738;10.050;2023-04-19T22:50:04;8.67;;;5.23;;
5702;SDS011;2876;51.738;10.050;2023-04-19T22:56:06;7.50;;;5.07;;
5702;SDS011;2876;51.738;10.050;2023-04-19T23:02:08;8.23;;;4.90;;
5702;SDS011;2876;51.738;10.050;2023-04-19T23:08:10;7.80;;;5.23;;
5702;SDS011;2876;51.738;10.050;2023-04-19T23:14:13;8.57;;;5.63;;
5702;SDS011;2876;51.738;10.050;2023-04-19T23:20:18;13.93;;;5.40;;
5702;SDS011;2876;51.738;10.050;2023-04-19T23:26:21;7.60;;;5.00;;
5702;SDS011;2876;51.738;10.050;2023-04-19T23:32:23;7.80;;;4.70;;
5702;SDS011;2876;51.738;10.050;2023-04-19T23:38:25;9.27;;;4.60;;
5702;SDS011;2876;51.738;10.050;2023-04-19T23:44:27;10.33;;;5.00;;
5702;SDS011;2876;51.738;10.050;2023-04-19T23:50:29;7.27;;;4.80;;
5702;SDS011;2876;51.738;10.050;2023-04-19T23:56:32;9.30;;;4.70;;
